createdAt,value
2019-05-05T00:01:55.492Z,5.90
2019-05-05T00:04:49.818Z,5.80
2019-05-05T00:07:22.859Z,6.00
2019-05-05T00:09:51.898Z,6.20
2019-05-05T00:12:38.403Z,6.30
2019-05-05T00:15:29.692Z,5.80
2019-05-05T00:17:58.581Z,5.90
2019-05-05T00:20:27.752Z,5.60
2019-05-05T00:22:56.557Z,5.50
2019-05-05T00:25:25.338Z,5.50
2019-05-05T00:27:54.613Z,5.60
2019-05-05T00:30:24.942Z,5.50
2019-05-05T00:32:54.856Z,5.30
2019-05-05T00:35:25.237Z,5.40
2019-05-05T00:37:54.485Z,5.30
2019-05-05T00:40:24.848Z,5.00
2019-05-05T00:42:54.694Z,4.90
2019-05-05T00:45:25.290Z,4.90
2019-05-05T00:48:01.022Z,5.00
2019-05-05T00:50:30.200Z,4.60
2019-05-05T00:52:58.985Z,5.10
2019-05-05T00:55:27.717Z,5.10
2019-05-05T00:57:56.731Z,5.30
2019-05-05T01:00:36.854Z,5.60
2019-05-05T01:03:05.853Z,5.70
2019-05-05T01:05:58.265Z,5.70
2019-05-05T01:08:28.944Z,5.80
2019-05-05T01:10:58.461Z,5.80
2019-05-05T01:13:27.630Z,5.70
2019-05-05T01:15:56.760Z,5.20
2019-05-05T01:18:25.760Z,5.40
2019-05-05T01:20:55.212Z,5.10
2019-05-05T01:23:24.464Z,5.10
2019-05-05T01:25:54.423Z,5.20
2019-05-05T01:28:24.924Z,5.40
2019-05-05T01:30:57.184Z,5.60
2019-05-05T01:33:40.461Z,5.30
2019-05-05T01:36:09.353Z,5.30
2019-05-05T01:38:46.469Z,5.20
2019-05-05T01:41:22.129Z,5.00
2019-05-05T01:43:50.916Z,4.90
2019-05-05T01:46:19.697Z,5.10
2019-05-05T01:48:48.505Z,4.30
2019-05-05T01:51:17.226Z,4.60
2019-05-05T01:53:45.988Z,4.60
2019-05-05T01:56:15.456Z,4.40
2019-05-05T01:58:44.781Z,4.60
2019-05-05T02:01:15.295Z,4.50
2019-05-05T02:03:44.341Z,4.60
2019-05-05T02:06:14.213Z,4.70
2019-05-05T02:08:45.273Z,4.80
2019-05-05T02:11:15.476Z,4.70
2019-05-05T02:13:45.068Z,4.50
2019-05-05T02:16:15.053Z,4.70
2019-05-05T02:18:45.074Z,4.70
2019-05-05T02:21:14.306Z,4.90
2019-05-05T02:23:45.168Z,4.90
2019-05-05T02:26:15.241Z,5.00
2019-05-05T02:28:57.292Z,5.10
2019-05-05T02:31:39.360Z,5.30
2019-05-05T02:34:09.848Z,5.50
2019-05-05T02:36:38.965Z,5.60
2019-05-05T02:39:10.374Z,5.70
2019-05-05T02:41:40.484Z,5.80
2019-05-05T02:44:09.667Z,5.80
2019-05-05T02:46:50.181Z,5.80
2019-05-05T02:49:19.440Z,5.80
2019-05-05T02:51:48.986Z,5.70
2019-05-05T02:54:20.098Z,5.60
2019-05-05T02:56:50.797Z,5.70
2019-05-05T02:59:43.513Z,5.70
2019-05-05T03:02:24.269Z,5.60
2019-05-05T03:04:53.686Z,5.70
2019-05-05T03:07:25.809Z,5.70
2019-05-05T03:09:54.970Z,5.70
2019-05-05T03:12:26.177Z,5.70
2019-05-05T03:14:58.087Z,5.60
2019-05-05T03:17:27.258Z,5.50
2019-05-05T03:19:56.491Z,5.40
2019-05-05T03:22:26.702Z,5.40
2019-05-05T03:24:56.125Z,5.20
2019-05-05T03:27:25.418Z,5.00
2019-05-05T03:29:54.595Z,5.00
2019-05-05T03:32:25.510Z,5.10
2019-05-05T03:34:54.332Z,5.20
2019-05-05T03:37:25.041Z,5.10
2019-05-05T03:40:00.605Z,5.00
2019-05-05T03:42:45.926Z,5.00
2019-05-05T03:45:39.305Z,4.80
2019-05-05T03:48:08.445Z,4.60
2019-05-05T03:50:37.344Z,4.60
2019-05-05T03:53:06.185Z,4.60
2019-05-05T03:55:36.044Z,4.70
2019-05-05T03:58:05.160Z,4.40
2019-05-05T04:01:15.493Z,4.10
2019-05-05T04:03:44.510Z,4.20
2019-05-05T04:06:14.652Z,4.10
2019-05-05T04:08:44.420Z,3.70
2019-05-05T04:11:14.382Z,3.80
2019-05-05T04:13:43.840Z,3.80
2019-05-05T04:16:23.751Z,3.80
2019-05-05T04:18:57.235Z,3.70
2019-05-05T04:21:33.181Z,3.90
2019-05-05T04:23:56.405Z,4.00
2019-05-05T04:26:25.305Z,4.40
2019-05-05T04:28:54.217Z,4.50
2019-05-05T04:31:24.190Z,4.40
2019-05-05T04:33:53.803Z,4.60
2019-05-05T04:36:23.530Z,4.80
2019-05-05T04:38:54.588Z,5.00
2019-05-05T04:41:24.540Z,5.10
2019-05-05T04:43:54.699Z,5.40
2019-05-05T04:46:24.561Z,5.40
2019-05-05T04:49:07.255Z,5.70
2019-05-05T04:51:48.739Z,5.90
2019-05-05T04:54:24.403Z,5.90
2019-05-05T04:56:53.975Z,6.20
2019-05-05T04:59:23.561Z,6.30
2019-05-05T05:01:56.119Z,6.30
2019-05-05T05:04:36.720Z,6.30
2019-05-05T05:07:06.108Z,6.60
2019-05-05T05:09:34.896Z,6.10
2019-05-05T05:12:04.099Z,6.20
2019-05-05T05:14:33.745Z,6.40
2019-05-05T05:17:04.225Z,6.70
2019-05-05T05:19:33.542Z,7.00
2019-05-05T05:22:04.833Z,7.20
2019-05-05T05:24:34.344Z,6.70
2019-05-05T05:27:05.051Z,6.90
2019-05-05T05:29:34.613Z,6.90
2019-05-05T05:32:04.300Z,6.90
2019-05-05T05:34:34.457Z,6.80
2019-05-05T05:37:04.179Z,6.90
2019-05-05T05:39:44.051Z,7.10
2019-05-05T05:42:13.715Z,7.10
2019-05-05T05:45:14.593Z,6.80
2019-05-05T05:48:01.558Z,7.00
2019-05-05T05:50:34.075Z,6.70
2019-05-05T05:53:04.742Z,6.50
2019-05-05T05:55:34.317Z,6.70
2019-05-05T05:58:04.767Z,6.80
2019-05-05T06:00:34.500Z,7.20
2019-05-05T06:03:03.883Z,7.00
2019-05-05T06:05:34.344Z,7.00
2019-05-05T06:08:04.797Z,7.30
2019-05-05T06:10:34.038Z,7.10
2019-05-05T06:13:04.154Z,7.30
2019-05-05T06:15:33.900Z,6.80
2019-05-05T06:18:04.689Z,7.30
2019-05-05T06:20:34.410Z,7.00
2019-05-05T06:23:04.204Z,6.70
2019-05-05T06:25:34.297Z,7.00
2019-05-05T06:28:04.267Z,7.40
2019-05-05T06:30:33.768Z,7.20
2019-05-05T06:33:04.870Z,7.00
2019-05-05T06:35:34.154Z,7.00
2019-05-05T06:38:04.628Z,7.10
2019-05-05T06:40:53.598Z,6.60
2019-05-05T06:43:41.290Z,7.20
2019-05-05T06:46:11.559Z,7.40
2019-05-05T06:48:43.696Z,7.60
2019-05-05T06:51:14.033Z,7.90
2019-05-05T06:53:43.550Z,8.30
2019-05-05T06:56:14.574Z,8.60
2019-05-05T06:58:44.765Z,8.90
2019-05-05T07:01:14.419Z,9.10
2019-05-05T07:03:43.839Z,9.10
2019-05-05T07:06:14.623Z,8.90
2019-05-05T07:08:44.069Z,9.30
2019-05-05T07:11:14.581Z,9.30
2019-05-05T07:13:44.401Z,9.20
2019-05-05T07:16:14.911Z,9.50
2019-05-05T07:18:44.568Z,9.80
2019-05-05T07:21:14.227Z,10.00
2019-05-05T07:23:44.523Z,9.60
2019-05-05T07:26:14.344Z,9.00
2019-05-05T07:28:44.715Z,9.50
2019-05-05T07:31:14.388Z,9.00
2019-05-05T07:33:43.870Z,9.20
2019-05-05T07:36:39.041Z,8.90
2019-05-05T07:39:08.587Z,9.30
2019-05-05T07:41:40.342Z,9.00
2019-05-05T07:44:07.977Z,9.30
2019-05-05T07:46:36.754Z,9.60
2019-05-05T07:49:06.268Z,9.70
2019-05-05T07:51:35.015Z,10.10
2019-05-05T07:54:04.025Z,9.50
2019-05-05T07:56:34.430Z,10.00
2019-05-05T07:59:03.956Z,9.90
2019-05-05T08:01:33.827Z,9.50
2019-05-05T08:04:04.463Z,10.10
2019-05-05T08:06:33.909Z,9.40
2019-05-05T08:09:05.415Z,10.00
2019-05-05T08:11:34.416Z,10.30
2019-05-05T08:14:04.051Z,11.50
2019-05-05T08:16:46.951Z,11.80
2019-05-05T08:19:34.692Z,11.70
2019-05-05T08:22:04.153Z,11.70
2019-05-05T08:24:52.005Z,11.50
2019-05-05T08:27:48.971Z,11.10
2019-05-05T08:30:38.962Z,11.10
2019-05-05T08:33:07.899Z,11.10
2019-05-05T08:35:38.728Z,10.80
2019-05-05T08:38:07.568Z,11.50
2019-05-05T08:40:36.602Z,11.80
2019-05-05T08:43:05.325Z,10.10
2019-05-05T08:45:34.992Z,10.90
2019-05-05T08:48:04.828Z,11.20
2019-05-05T08:50:34.978Z,10.70
2019-05-05T08:53:04.880Z,10.90
2019-05-05T08:55:34.735Z,12.00
2019-05-05T08:58:04.566Z,11.90
2019-05-05T09:00:33.947Z,11.30
2019-05-05T09:03:03.749Z,11.40
2019-05-05T09:05:34.386Z,11.40
2019-05-05T09:08:04.582Z,9.80
2019-05-05T09:10:34.324Z,10.50
2019-05-05T09:13:03.881Z,11.10
2019-05-05T09:15:33.819Z,11.50
2019-05-05T09:18:04.791Z,11.80
2019-05-05T09:20:34.758Z,12.50
2019-05-05T09:23:04.247Z,12.50
2019-05-05T09:25:44.673Z,12.30
2019-05-05T09:28:36.649Z,11.70
2019-05-05T09:31:05.807Z,11.70
2019-05-05T09:33:34.543Z,11.20
2019-05-05T09:36:04.692Z,11.00
2019-05-05T09:38:34.882Z,11.30
2019-05-05T09:41:03.925Z,11.60
2019-05-05T09:43:34.554Z,11.50
2019-05-05T09:46:03.946Z,12.50
2019-05-05T09:48:33.582Z,11.90
2019-05-05T09:51:04.331Z,12.20
2019-05-05T09:53:34.521Z,12.20
2019-05-05T09:56:04.181Z,11.90
2019-05-05T09:58:34.763Z,11.40
2019-05-05T10:01:04.011Z,11.80
2019-05-05T10:03:34.074Z,10.90
2019-05-05T10:06:04.908Z,12.10
2019-05-05T10:08:34.693Z,12.00
2019-05-05T10:11:04.123Z,12.40
2019-05-05T10:13:33.761Z,13.00
2019-05-05T10:16:03.959Z,13.10
2019-05-05T10:18:35.505Z,12.70
2019-05-05T10:21:04.606Z,12.20
2019-05-05T10:23:35.503Z,11.40
2019-05-05T10:26:07.428Z,11.50
2019-05-05T10:28:36.238Z,12.20
2019-05-05T10:31:05.285Z,11.80
2019-05-05T10:33:36.488Z,11.50
2019-05-05T10:36:05.382Z,12.00
2019-05-05T10:38:35.772Z,12.10
2019-05-05T10:41:05.054Z,12.90
2019-05-05T10:43:34.324Z,13.30
2019-05-05T10:46:03.900Z,12.60
2019-05-05T10:48:34.049Z,11.90
2019-05-05T10:51:04.217Z,12.00
2019-05-05T10:53:33.224Z,11.80
2019-05-05T10:56:04.265Z,11.50
2019-05-05T10:58:33.602Z,11.90
2019-05-05T11:01:04.285Z,11.00
2019-05-05T11:03:34.320Z,10.90
2019-05-05T11:06:04.568Z,10.50
2019-05-05T11:08:34.958Z,10.90
2019-05-05T11:11:04.332Z,11.50
2019-05-05T11:13:34.469Z,11.80
2019-05-05T11:16:03.974Z,12.00
2019-05-05T11:18:34.492Z,12.00
2019-05-05T11:21:04.119Z,12.40
2019-05-05T11:23:34.599Z,13.10
2019-05-05T11:26:04.080Z,13.60
2019-05-05T11:28:33.925Z,12.60
2019-05-05T11:31:04.478Z,12.30
2019-05-05T11:33:56.785Z,11.30
2019-05-05T11:36:31.862Z,12.60
2019-05-05T11:39:00.663Z,12.30
2019-05-05T11:41:29.353Z,11.80
2019-05-05T11:43:58.079Z,12.60
2019-05-05T11:46:26.804Z,12.00
2019-05-05T11:48:55.517Z,12.40
2019-05-05T11:51:24.997Z,12.80
2019-05-05T11:53:54.159Z,13.10
2019-05-05T11:56:23.420Z,13.60
2019-05-05T11:58:54.520Z,13.80
2019-05-05T12:01:24.282Z,13.50
2019-05-05T12:03:53.663Z,14.00
2019-05-05T12:06:24.654Z,13.90
2019-05-05T12:08:53.709Z,12.70
2019-05-05T12:11:24.004Z,13.20
2019-05-05T12:13:54.586Z,12.80
2019-05-05T12:16:31.634Z,12.60
2019-05-05T12:19:05.936Z,12.50
2019-05-05T12:21:34.644Z,12.90
2019-05-05T12:24:08.600Z,12.80
2019-05-05T12:26:46.218Z,13.20
2019-05-05T12:29:39.627Z,13.10
2019-05-05T12:32:12.970Z,12.70
2019-05-05T12:34:41.596Z,12.40
2019-05-05T12:37:10.391Z,12.80
2019-05-05T12:39:39.461Z,13.30
2019-05-05T12:42:08.306Z,13.90
2019-05-05T12:44:41.648Z,13.80
2019-05-05T12:47:30.573Z,13.50
2019-05-05T12:49:59.365Z,13.70
2019-05-05T12:52:28.226Z,13.60
2019-05-05T12:54:57.156Z,13.10
2019-05-05T12:57:25.854Z,13.90
2019-05-05T12:59:54.733Z,13.70
2019-05-05T13:02:23.953Z,13.80
2019-05-05T13:04:53.589Z,13.20
2019-05-05T13:07:24.309Z,13.40
2019-05-05T13:09:54.526Z,13.30
2019-05-05T13:12:24.029Z,13.80
2019-05-05T13:14:54.465Z,14.00
2019-05-05T13:17:24.731Z,13.50
2019-05-05T13:20:13.931Z,13.50
2019-05-05T13:23:08.144Z,13.80
2019-05-05T13:25:56.041Z,13.60
2019-05-05T13:28:18.354Z,14.40
2019-05-05T13:30:47.118Z,14.00
2019-05-05T13:33:15.915Z,14.00
2019-05-05T13:35:44.738Z,15.00
2019-05-05T13:38:14.579Z,14.80
2019-05-05T13:40:44.085Z,15.50
2019-05-05T13:43:14.445Z,15.30
2019-05-05T13:45:50.170Z,15.20
2019-05-05T13:48:18.944Z,14.70
2019-05-05T13:50:51.473Z,13.50
2019-05-05T13:53:20.376Z,14.00
2019-05-05T13:55:49.557Z,13.70
2019-05-05T13:58:18.349Z,14.30
2019-05-05T14:00:47.239Z,13.40
2019-05-05T14:03:16.020Z,13.70
2019-05-05T14:05:45.122Z,14.10
2019-05-05T14:08:14.808Z,14.70
2019-05-05T14:10:43.732Z,15.10
2019-05-05T14:13:12.453Z,15.20
2019-05-05T14:15:41.238Z,14.40
2019-05-05T14:18:09.999Z,14.80
2019-05-05T14:20:39.092Z,14.90
2019-05-05T14:23:07.810Z,14.90
2019-05-05T14:25:36.525Z,15.30
2019-05-05T14:28:05.581Z,14.00
2019-05-05T14:30:43.493Z,14.80
2019-05-05T14:33:16.692Z,15.70
2019-05-05T14:35:53.981Z,15.90
2019-05-05T14:38:34.734Z,15.70
2019-05-05T14:41:04.190Z,14.80
2019-05-05T14:43:34.511Z,14.10
2019-05-05T14:46:03.919Z,14.00
2019-05-05T14:48:34.029Z,15.00
2019-05-05T14:51:03.958Z,14.70
2019-05-05T14:53:34.843Z,15.20
2019-05-05T14:56:04.604Z,15.30
2019-05-05T14:58:33.961Z,15.70
2019-05-05T15:01:04.478Z,16.20
2019-05-05T15:03:33.696Z,15.20
2019-05-05T15:06:18.000Z,14.80
2019-05-05T15:08:54.292Z,14.10
2019-05-05T15:11:33.856Z,14.30
2019-05-05T15:14:04.947Z,13.70
2019-05-05T15:16:34.707Z,13.90
2019-05-05T15:19:04.054Z,14.00
2019-05-05T15:21:33.984Z,14.60
2019-05-05T15:24:02.944Z,15.00
2019-05-05T15:26:34.349Z,15.30
2019-05-05T15:29:02.577Z,15.50
2019-05-05T15:31:31.549Z,15.00
2019-05-05T15:34:00.468Z,15.20
2019-05-05T15:36:29.737Z,15.20
2019-05-05T15:38:59.387Z,15.20
2019-05-05T15:41:28.089Z,15.20
2019-05-05T15:43:57.296Z,15.20
2019-05-05T15:46:26.033Z,14.50
2019-05-05T15:48:54.791Z,15.00
2019-05-05T15:51:23.741Z,15.10
2019-05-05T15:53:54.238Z,15.60
2019-05-05T15:56:24.450Z,15.40
2019-05-05T15:58:53.309Z,14.40
2019-05-05T16:01:23.701Z,14.60
2019-05-05T16:03:54.204Z,14.60
2019-05-05T16:06:23.739Z,14.00
2019-05-05T16:08:56.324Z,14.50
2019-05-05T16:11:23.445Z,14.70
2019-05-05T16:13:54.383Z,15.10
2019-05-05T16:16:29.814Z,15.00
2019-05-05T16:19:13.983Z,15.40
2019-05-05T16:21:54.877Z,16.20
2019-05-05T16:24:26.145Z,17.80
2019-05-05T16:26:55.609Z,20.20
2019-05-05T16:29:25.380Z,22.20
2019-05-05T16:31:54.466Z,23.20
2019-05-05T16:34:23.553Z,21.60
2019-05-05T16:36:54.441Z,19.00
2019-05-05T16:39:25.256Z,17.00
2019-05-05T16:41:53.780Z,16.70
2019-05-05T16:44:23.428Z,16.40
2019-05-05T16:46:53.981Z,16.30
2019-05-05T16:49:22.920Z,14.80
2019-05-05T16:52:00.770Z,15.00
2019-05-05T16:54:34.992Z,14.90
2019-05-05T16:57:05.733Z,14.90
2019-05-05T16:59:34.308Z,15.00
2019-05-05T17:02:04.735Z,14.70
2019-05-05T17:04:35.507Z,14.40
2019-05-05T17:07:04.158Z,14.70
2019-05-05T17:09:34.454Z,14.60
2019-05-05T17:12:09.946Z,14.90
2019-05-05T17:15:00.604Z,15.00
2019-05-05T17:17:35.588Z,14.90
2019-05-05T17:20:10.780Z,15.10
2019-05-05T17:22:44.720Z,14.70
2019-05-05T17:25:13.993Z,14.50
2019-05-05T17:27:48.558Z,13.60
2019-05-05T17:30:15.118Z,14.40
2019-05-05T17:32:44.170Z,15.30
2019-05-05T17:35:14.356Z,16.20
2019-05-05T17:37:44.264Z,15.50
2019-05-05T17:40:21.327Z,15.70
2019-05-05T17:43:23.976Z,15.00
2019-05-05T17:45:59.540Z,14.80
2019-05-05T17:48:33.233Z,14.50
2019-05-05T17:51:17.768Z,13.60
2019-05-05T17:54:11.445Z,13.60
2019-05-05T17:56:40.474Z,13.40
2019-05-05T17:59:09.248Z,13.10
2019-05-05T18:01:38.338Z,13.20
2019-05-05T18:04:07.062Z,13.30
2019-05-05T18:06:40.834Z,12.60
2019-05-05T18:09:23.830Z,12.90
2019-05-05T18:12:07.157Z,12.50
2019-05-05T18:14:36.652Z,12.10
2019-05-05T18:17:05.410Z,12.60
2019-05-05T18:19:34.443Z,12.90
2019-05-05T18:22:03.148Z,13.00
2019-05-05T18:24:33.678Z,12.70
2019-05-05T18:27:04.640Z,12.60
2019-05-05T18:29:33.992Z,12.40
2019-05-05T18:32:04.331Z,12.50
2019-05-05T18:34:33.546Z,12.40
2019-05-05T18:37:03.745Z,12.40
2019-05-05T18:39:34.258Z,12.10
2019-05-05T18:42:13.837Z,12.00
2019-05-05T18:44:44.867Z,11.70
2019-05-05T18:47:18.191Z,11.80
2019-05-05T18:49:46.442Z,11.80
2019-05-05T18:52:15.140Z,12.10
2019-05-05T18:54:43.954Z,12.30
2019-05-05T18:57:13.167Z,12.20
2019-05-05T18:59:41.950Z,12.40
2019-05-05T19:02:45.183Z,12.40
2019-05-05T19:05:44.073Z,12.20
2019-05-05T19:08:17.404Z,12.20
2019-05-05T19:10:46.509Z,12.10
2019-05-05T19:13:15.408Z,12.00
2019-05-05T19:15:45.263Z,12.00
2019-05-05T19:18:14.175Z,12.20
2019-05-05T19:20:49.682Z,12.40
2019-05-05T19:23:19.289Z,12.20
2019-05-05T19:25:47.999Z,12.10
2019-05-05T19:28:17.088Z,12.10
2019-05-05T19:30:45.905Z,12.30
2019-05-05T19:33:15.543Z,12.40
2019-05-05T19:35:47.296Z,12.40
2019-05-05T19:38:15.818Z,12.30
2019-05-05T19:40:45.358Z,12.30
2019-05-05T19:43:14.601Z,12.30
2019-05-05T19:45:44.769Z,12.30
2019-05-05T19:48:14.966Z,12.20
2019-05-05T19:50:54.244Z,12.10
2019-05-05T19:53:26.660Z,12.10
2019-05-05T19:55:56.502Z,12.00
2019-05-05T19:58:25.719Z,12.00
2019-05-05T20:00:57.390Z,11.90
2019-05-05T20:03:26.601Z,12.00
2019-05-05T20:05:55.693Z,12.00
2019-05-05T20:08:38.981Z,11.90
2019-05-05T20:10:55.397Z,11.80
2019-05-05T20:13:24.176Z,11.80
2019-05-05T20:16:04.507Z,11.80
2019-05-05T20:18:34.279Z,11.80
2019-05-05T20:21:06.840Z,11.90
2019-05-05T20:23:34.153Z,11.90
2019-05-05T20:26:04.017Z,12.00
2019-05-05T20:28:33.888Z,12.10
2019-05-05T20:31:03.640Z,12.20
2019-05-05T20:33:44.704Z,12.20
2019-05-05T20:36:16.905Z,12.20
2019-05-05T20:38:48.850Z,12.20
2019-05-05T20:41:19.500Z,12.20
2019-05-05T20:43:48.270Z,12.10
2019-05-05T20:46:16.979Z,12.00
2019-05-05T20:48:45.747Z,11.70
2019-05-05T20:51:14.478Z,11.80
2019-05-05T20:53:44.786Z,11.80
2019-05-05T20:56:14.921Z,11.70
2019-05-05T20:58:44.051Z,11.70
2019-05-05T21:01:14.005Z,11.80
2019-05-05T21:03:42.860Z,11.70
2019-05-05T21:06:13.662Z,11.70
2019-05-05T21:08:44.061Z,11.50
2019-05-05T21:11:14.135Z,11.60
2019-05-05T21:13:45.079Z,11.60
2019-05-05T21:16:14.333Z,11.50
2019-05-05T21:18:43.554Z,11.50
2019-05-05T21:21:17.426Z,11.50
2019-05-05T21:23:56.312Z,11.50
2019-05-05T21:26:44.130Z,11.60
2019-05-05T21:29:14.056Z,11.50
2019-05-05T21:31:43.798Z,11.40
2019-05-05T21:34:13.965Z,11.20
2019-05-05T21:36:44.800Z,11.20
2019-05-05T21:39:14.894Z,11.00
2019-05-05T21:41:44.214Z,11.10
2019-05-05T21:44:14.671Z,11.00
2019-05-05T21:46:43.851Z,10.90
2019-05-05T21:49:13.613Z,11.00
2019-05-05T21:52:01.718Z,10.90
2019-05-05T21:54:39.235Z,10.90
2019-05-05T21:57:34.576Z,10.70
2019-05-05T22:00:05.444Z,10.30
2019-05-05T22:02:34.596Z,10.10
2019-05-05T22:05:04.146Z,10.20
2019-05-05T22:07:33.655Z,9.90
2019-05-05T22:10:04.487Z,9.90
2019-05-05T22:12:36.229Z,9.80
2019-05-05T22:15:04.615Z,9.80
2019-05-05T22:17:36.179Z,9.80
2019-05-05T22:20:17.613Z,9.90
2019-05-05T22:22:46.930Z,9.80
2019-05-05T22:25:15.670Z,9.70
2019-05-05T22:27:44.417Z,9.80
2019-05-05T22:30:14.164Z,9.90
2019-05-05T22:32:44.132Z,9.80
2019-05-05T22:35:13.996Z,9.70
2019-05-05T22:37:44.038Z,9.60
2019-05-05T22:40:20.742Z,9.60
2019-05-05T22:42:49.702Z,9.20
2019-05-05T22:45:18.609Z,9.40
2019-05-05T22:47:47.604Z,9.10
2019-05-05T22:50:16.689Z,9.20
2019-05-05T22:52:45.395Z,9.10
2019-05-05T22:55:14.300Z,9.20
2019-05-05T22:57:45.094Z,9.20
2019-05-05T23:00:26.080Z,9.30
2019-05-05T23:02:51.653Z,9.40
2019-05-05T23:05:27.274Z,9.50
2019-05-05T23:07:56.258Z,9.50
2019-05-05T23:10:25.326Z,9.50
2019-05-05T23:12:54.464Z,9.50
2019-05-05T23:15:25.467Z,9.40
2019-05-05T23:18:16.298Z,9.30
2019-05-05T23:21:10.242Z,9.40
2019-05-05T23:23:48.160Z,9.40
2019-05-05T23:26:18.061Z,9.50
2019-05-05T23:28:46.766Z,9.50
2019-05-05T23:31:16.158Z,9.50
2019-05-05T23:33:45.132Z,9.50
2019-05-05T23:36:14.791Z,9.50
2019-05-05T23:38:44.906Z,9.50
2019-05-05T23:41:14.594Z,9.50
2019-05-05T23:43:45.086Z,9.50
2019-05-05T23:46:14.459Z,9.50
2019-05-05T23:48:44.149Z,9.40
2019-05-05T23:51:13.953Z,9.30
2019-05-05T23:53:44.486Z,9.30
2019-05-05T23:56:13.660Z,9.30
2019-05-05T23:59:19.168Z,9.30
